Flight Track Log - Related Links

Times and Time Zones

All times are in EDT time to prevent confusion due to time zone crossing. See the SWA1377 flight status page for this flight to view local times or setup timezone preferences in your user account.

Time Position Orientation Groundspeed Altitude Reporting Facility
EDT Latitude Longitude Course Direction KTS MPH feet Rate Location/Type
Tue 07:11:23 AM 29.5222 -98.4592 127° Southeast 146 168 1,700  Level Houston Center
Tue 07:11:59 AM 29.5050 -98.4325 127° Southeast 174 200 2,900 2,289 Climbing Houston Center
Tue 07:13:00 AM 29.5078 -98.3697 87° East 264 304 5,400 2,912 Climbing Houston Center
Tue 07:14:15 AM 29.5964 -98.3294 22° Northeast 292 336 9,500 3,000 Climbing Houston Center
Tue 07:15:16 AM 29.6897 -98.3414 354° North 324 373 12,200 2,876 Climbing Houston Center
Tue 07:16:16 AM 29.7842 -98.3528 354° North 341 392 15,300 2,876 Climbing Houston Center
Tue 07:17:17 AM 29.8875 -98.3653 354° North 371 427 18,000 2,705 Climbing Houston Center
Tue 07:18:18 AM 29.9947 -98.3786 354° North 387 445 20,800 2,678 Climbing Houston Center
Tue 07:19:18 AM 30.1067 -98.3911 354° North 401 461 23,400 2,479 Climbing Houston Center
Tue 07:20:19 AM 30.2231 -98.3753 North 424 488 25,800 2,115 Climbing Houston Center
Tue 07:21:20 AM 30.3414 -98.3589 North 426 490 27,700 1,820 Climbing Houston Center
Tue 07:22:21 AM 30.4675 -98.3411 North 445 512 29,500 1,785 Climbing Houston Center
Tue 07:23:21 AM 30.5944 -98.3222 North 451 519 31,300 1,983 Climbing Houston Center
Tue 07:24:22 AM 30.7217 -98.3033 North 452 520 33,500 1,869 Climbing Houston Center
Tue 07:25:23 AM 30.8458 -98.2844 North 447 514 35,100 1,377 Climbing Houston Center
Tue 07:26:24 AM 30.9692 -98.2661 North 441 507 36,300 1,107 Climbing Houston Center
Tue 07:27:06 AM 31.0517 -98.2547 North 455 524 37,000 1,118 Climbing Fort Worth Center
Tue 07:28:06 AM 31.1856 -98.2364 North 455 524 38,200 1,000 Climbing Fort Worth Center
Tue 07:29:06 AM 31.3089 -98.2158 North 445 512 39,000 400 Climbing Fort Worth Center
Tue 07:30:06 AM 31.4322 -98.1972 North 445 512 39,000  Level Fort Worth Center
Tue 07:31:06 AM 31.5553 -98.1814 North 445 512 39,000  Level Fort Worth Center
Tue 07:32:06 AM 31.6747 -98.1261 21° North 450 518 39,000  Level Fort Worth Center
Tue 07:33:06 AM 31.7878 -98.0414 32° Northeast 472 543 39,000  Level Fort Worth Center
Tue 07:34:06 AM 31.8906 -97.9639 33° Northeast 481 554 39,000  Level Fort Worth Center
Tue 07:35:06 AM 31.9975 -97.8789 34° Northeast 473 544 39,000  Level Fort Worth Center
Tue 07:36:06 AM 32.1083 -97.7936 33° Northeast 473 544 39,000  Level Fort Worth Center
Tue 07:37:06 AM 32.2172 -97.7056 34° Northeast 467 537 39,000  Level Fort Worth Center
Tue 07:38:06 AM 32.3425 -97.6125 32° Northeast 472 543 39,000  Level Fort Worth Center
Tue 07:39:06 AM 32.4533 -97.5242 34° Northeast 472 543 39,000  Level Fort Worth Center
Tue 07:40:06 AM 32.5661 -97.4356 34° Northeast 480 552 39,000  Level Fort Worth Center
Tue 07:41:06 AM 32.6789 -97.3467 34° Northeast 480 552 39,000  Level Fort Worth Center
Tue 07:42:06 AM 32.7894 -97.2578 34° Northeast 486 559 39,000  Level Fort Worth Center
Tue 07:43:06 AM 32.9061 -97.1683 33° Northeast 491 565 39,000  Level Fort Worth Center
Tue 07:44:06 AM 33.0228 -97.0864 30° Northeast 486 559 39,000  Level Fort Worth Center
Tue 07:45:06 AM 33.1292 -97.0142 30° Northeast 486 559 39,000  Level Fort Worth Center
Tue 07:46:06 AM 33.2542 -96.9267 30° Northeast 476 548 39,000  Level Fort Worth Center
Tue 07:47:06 AM 33.3686 -96.8464 30° Northeast 476 548 39,000  Level Fort Worth Center
Tue 07:48:06 AM 33.4831 -96.7658 30° Northeast 476 548 39,000  Level Fort Worth Center
Tue 07:49:06 AM 33.5972 -96.6878 30° Northeast 471 542 39,000  Level Fort Worth Center
Tue 07:50:06 AM 33.7094 -96.6069 31° Northeast 471 542 39,000  Level Fort Worth Center
Tue 07:51:06 AM 33.8217 -96.5258 31° Northeast 465 535 39,000  Level Fort Worth Center
Tue 07:52:06 AM 33.9358 -96.4447 31° Northeast 466 536 39,000  Level Fort Worth Center
Tue 07:53:06 AM 34.0481 -96.3656 30° Northeast 466 536 39,000  Level Fort Worth Center
Tue 07:54:06 AM 34.1411 -96.2942 32° Northeast 451 519 39,000  Level Fort Worth Center
Tue 07:55:06 AM 34.2533 -96.2175 29° Northeast 446 513 39,000  Level Fort Worth Center
Tue 07:56:06 AM 34.3631 -96.1381 31° Northeast 451 519 39,000  Level Fort Worth Center
Tue 07:57:06 AM 34.4728 -96.0483 34° Northeast 457 526 39,000  Level Fort Worth Center
Tue 07:58:06 AM 34.5800 -95.9531 36° Northeast 468 539 39,000  Level Fort Worth Center
Tue 07:59:06 AM 34.6875 -95.8553 37° Northeast 468 539 39,000  Level Fort Worth Center
Tue 08:00:06 AM 34.7925 -95.7600 37° Northeast 473 544 39,000  Level Fort Worth Center
Tue 08:01:06 AM 34.9019 -95.6617 36° Northeast 473 544 39,000  Level Fort Worth Center
Tue 08:02:06 AM 35.0069 -95.5656 37° Northeast 473 544 39,000  Level Fort Worth Center
Tue 08:03:06 AM 35.1139 -95.4669 37° Northeast 473 544 39,000  Level Fort Worth Center
Tue 08:04:22 AM 35.2564 -95.3358 37° Northeast 467 537 39,000  Level Memphis Center
Tue 08:05:22 AM 35.3644 -95.2378 36° Northeast 467 537 39,000  Level Memphis Center
Tue 08:06:22 AM 35.4683 -95.1394 38° Northeast 472 543 39,000  Level Memphis Center
Tue 08:07:22 AM 35.5742 -95.0433 36° Northeast 472 543 39,000  Level Memphis Center
Tue 08:08:22 AM 35.6781 -94.9444 38° Northeast 472 543 39,000 450 Level Memphis Center
Tue 08:09:22 AM 35.7817 -94.8478 37° Northeast 472 543 39,900 900 Climbing Memphis Center
Tue 08:10:22 AM 35.8853 -94.7511 37° Northeast 472 543 40,800 550 Climbing Memphis Center
Tue 08:11:22 AM 35.9908 -94.6539 37° Northeast 472 543 41,000 100 Climbing Memphis Center
Tue 08:12:22 AM 36.0964 -94.5517 38° Northeast 472 543 41,000  Level Memphis Center
Tue 08:13:22 AM 36.2061 -94.4492 37° Northeast 477 549 41,000  Level Memphis Center
Tue 08:14:59 AM 36.3792 -94.2828 38° Northeast 494 568 41,000  Level Kansas City Center
Tue 08:16:02 AM 36.4883 -94.1781 38° Northeast 497 572 41,000  Level Kansas City Center
Tue 08:17:04 AM 36.5953 -94.0761 37° Northeast 490 564 41,000  Level Kansas City Center
Tue 08:18:05 AM 36.6986 -93.9769 38° Northeast 477 549 41,000  Level Kansas City Center
Tue 08:19:05 AM 36.8019 -93.8769 38° Northeast 472 543 41,000  Level Kansas City Center
Tue 08:20:06 AM 36.9050 -93.7775 38° Northeast 469 540 41,000  Level Kansas City Center
Tue 08:21:06 AM 37.0158 -93.6681 38° Northeast 470 541 41,000  Level Kansas City Center
Tue 08:22:11 AM 37.1203 -93.5658 38° Northeast 474 545 41,000  Level Kansas City Center
Tue 08:23:08 AM 37.2258 -93.4622 38° Northeast 478 550 41,000  Level Kansas City Center
Tue 08:24:09 AM 37.3333 -93.3600 37° Northeast 480 552 41,000  Level Kansas City Center
Tue 08:25:11 AM 37.4411 -93.2561 37° Northeast 484 557 41,000  Level Kansas City Center
Tue 08:26:11 AM 37.5500 -93.1556 36° Northeast 483 556 41,000  Level Kansas City Center
Tue 08:27:12 AM 37.6617 -93.0550 35° Northeast 487 560 41,000  Level Kansas City Center
Tue 08:28:13 AM 37.7708 -92.9503 37° Northeast 490 564 41,000  Level Kansas City Center
Tue 08:29:17 AM 37.8803 -92.8478 36° Northeast 486 559 41,000  Level Kansas City Center
Tue 08:30:19 AM 38.0014 -92.7333 37° Northeast 482 555 41,000  Level Kansas City Center
Tue 08:31:20 AM 38.1086 -92.6328 36° Northeast 480 552 41,000  Level Kansas City Center
Tue 08:32:20 AM 38.2083 -92.5383 37° Northeast 485 558 41,000  Level Kansas City Center
Tue 08:33:20 AM 38.3206 -92.4331 36° Northeast 491 565 41,000  Level Kansas City Center
Tue 08:34:21 AM 38.4325 -92.3278 36° Northeast 494 568 41,000  Level Kansas City Center
Tue 08:35:23 AM 38.5650 -92.1989 37° Northeast 494 568 41,000  Level Kansas City Center
Tue 08:36:24 AM 38.6758 -92.0919 37° Northeast 495 570 41,000  Level Kansas City Center
Tue 08:37:24 AM 38.7861 -91.9856 37° Northeast 494 568 41,000  Level Kansas City Center
Tue 08:38:27 AM 38.8958 -91.8797 37° Northeast 492 566 41,000  Level Kansas City Center
Tue 08:39:28 AM 39.0047 -91.7736 37° Northeast 491 565 41,000  Level Kansas City Center
Tue 08:40:27 AM 39.1169 -91.6653 37° Northeast 488 562 41,000  Level Kansas City Center
Tue 08:41:31 AM 39.2258 -91.5592 37° Northeast 488 562 41,000  Level Kansas City Center
Tue 08:42:32 AM 39.3378 -91.4494 37° Northeast 497 572 41,000 -98 Level Kansas City Center
Tue 08:43:33 AM 39.4483 -91.3403 37° Northeast 500 575 40,800 -590 Descending Kansas City Center
Tue 08:44:34 AM 39.5578 -91.2308 38° Northeast 499 574 39,800 -1,082 Descending Kansas City Center
Tue 08:45:35 AM 39.6658 -91.1231 38° Northeast 494 568 38,600 -1,339 Descending Kansas City Center
Tue 08:46:35 AM 39.7619 -91.0114 42° Northeast 485 558 37,100 -1,736 Descending Kansas City Center
Tue 08:47:36 AM 39.8683 -90.8731 45° Northeast 488 562 35,100 -1,935 Descending Kansas City Center
Tue 08:48:39 AM 39.9678 -90.7433 45° Northeast 500 575 33,100 -1,935 Descending Kansas City Center
Tue 08:49:40 AM 40.0653 -90.6136 45° Northeast 502 578 31,100 -1,041 Descending Kansas City Center
Tue 08:50:40 AM 40.1633 -90.4856 45° Northeast 501 577 31,000 -49 Descending Kansas City Center
Tue 08:51:42 AM 40.2594 -90.3569 46° Northeast 495 570 31,000  Level Kansas City Center
Tue 08:52:43 AM 40.3575 -90.2264 45° Northeast 501 577 31,000 -532 Level Kansas City Center
Tue 08:53:46 AM 40.4561 -90.0950 45° Northeast 505 581 29,900 -1,500 Descending Kansas City Center
Tue 08:54:47 AM 40.5544 -89.9619 46° Northeast 498 573 27,900 -2,051 Descending Kansas City Center
Tue 08:55:43 AM 40.6450 -89.8375 46° Northeast 472 543 25,900 -2,237 Descending Chicago Center
Tue 08:56:45 AM 40.7161 -89.7025 55° Northeast 463 533 23,500 -2,390 Descending Chicago Center
Tue 08:57:46 AM 40.7797 -89.5625 59° Northeast 446 513 21,000 -2,390 Descending Chicago Center
Tue 08:58:48 AM 40.8425 -89.4144 61° Northeast 426 490 18,600 -1,935 Descending Chicago Center
Tue 08:59:50 AM 40.8992 -89.2836 60° Northeast 412 474 17,000 -1,122 Descending Chicago Center
Tue 09:00:51 AM 40.9517 -89.1622 60° Northeast 384 442 16,300 -1,024 Descending Chicago Center
Tue 09:01:53 AM 41.0067 -89.0292 61° Northeast 379 436 14,900 -1,258 Descending Chicago Center
Tue 09:02:55 AM 41.0581 -88.9083 61° Northeast 377 434 13,700 -1,561 Descending Chicago Center
Tue 09:03:56 AM 41.1072 -88.7878 62° Northeast 375 432 11,700 -1,854 Descending Chicago Center
Tue 09:04:58 AM 41.1681 -88.6489 60° Northeast 366 421 9,900 -1,452 Descending Chicago Center
Tue 09:06:00 AM 41.2125 -88.5508 59° Northeast 321 369 8,700 -1,073 Descending Chicago Center
Tue 09:07:01 AM 41.2956 -88.5317 10° North 308 354 7,700 -829 Descending Chicago Center
Tue 09:08:03 AM 41.3786 -88.5269 North 302 348 7,000 -677 Descending Chicago Center
Tue 09:09:05 AM 41.4594 -88.5186 North 296 341 6,300 -488 Descending Chicago Center
Tue 09:10:06 AM 41.4939 -88.4219 65° Northeast 298 343 6,000 -439 Descending Chicago Center
Tue 09:11:08 AM 41.5147 -88.3175 75° East 293 337 5,400 -484 Descending Chicago Center
Tue 09:12:10 AM 41.5356 -88.2133 75° East 290 334 5,000 -194 Descending Chicago Center
Tue 09:13:12 AM 41.5619 -88.0897 74° East 288 331 5,000  Level Chicago Center
Tue 09:14:13 AM 41.5831 -87.9847 75° East 290 334 5,000  Level Chicago Center
Tue 09:15:15 AM 41.6008 -87.8814 77° East 286 329 5,000  Level Chicago Center
Tue 09:16:17 AM 41.5939 -87.7825 95° East 274 315 5,000 -339 Level Chicago Center
Tue 09:17:19 AM 41.5914 -87.6897 92° East 262 302 4,300 -488 Descending Chicago Center
Tue 09:18:20 AM 41.6131 -87.6086 70° East 248 285 4,000 -634 Descending Chicago Center
Tue 09:19:22 AM 41.6586 -87.5842 22° Northeast 224 258 3,000 -796 Descending Chicago Center
Tue 09:20:13 AM 41.7000 -87.6333 318° Northwest 178 205 2,500 -410 Descending Chicago TRACON
Tue 09:21:19 AM 41.7333 -87.6667 323° Northwest 185 213 2,200 -350 Descending Chicago TRACON
Tue 09:22:13 AM 41.7833 -87.6667 360° North 191 220 1,800 -421 Descending Chicago TRACON
Tue 09:23:13 AM 41.8167 -87.7000 323° Northwest 138 159 1,400 -400 Descending Chicago TRACON

Login

Don't have an account? Register now (free) for customized features, flight alerts, and more!